Time;durP1;ratioP1;P1;durP2;ratioP2;P2;SDS_P1;SDS_P2;PMS_P1;PMS_P2;Temp;Humidity;BMP_temperature;BMP_pressure;BME280_temperature;BME280_humidity;BME280_pressure;Samples;Min_cycle;Max_cycle;Signal;HPM_P1;HPM_P2
2023/08/08 00:01:59;;;;;;;0.10;0.10;;;;;;;;;;5102482;28;20321;-79
2023/08/08 00:04:25;;;;;;;0.10;0.10;;;;;;;;;;5088017;28;20204;-79
2023/08/08 00:06:51;;;;;;;0.10;0.10;;;;;;;;;;5102041;28;20243;-79
2023/08/08 00:09:18;;;;;;;0.10;0.10;;;;;;;;;;5087101;28;20244;-79
2023/08/08 00:11:46;;;;;;;0.10;0.10;;;;;;;;;;5100147;28;20238;-79
2023/08/08 00:14:12;;;;;;;0.10;0.10;;;;;;;;;;5089648;28;20214;-79
2023/08/08 00:16:38;;;;;;;0.10;0.10;;;;;;;;;;5098509;28;20262;-79
2023/08/08 00:19:05;;;;;;;0.10;0.10;;;;;;;;;;5091299;28;20207;-79
2023/08/08 00:21:31;;;;;;;0.10;0.10;;;;;;;;;;5096023;28;20280;-78
2023/08/08 00:23:58;;;;;;;0.10;0.10;;;;;;;;;;5093759;28;20205;-78
2023/08/08 00:26:24;;;;;;;0.10;0.10;;;;;;;;;;5094338;28;20269;-79
2023/08/08 00:28:52;;;;;;;0.10;0.10;;;;;;;;;;5095444;28;20542;-79
2023/08/08 00:31:19;;;;;;;0.10;0.10;;;;;;;;;;5092523;28;20238;-78
2023/08/08 00:33:46;;;;;;;0.10;0.10;;;;;;;;;;5096467;28;20276;-79
2023/08/08 00:36:12;;;;;;;0.10;0.10;;;;;;;;;;5090837;28;20258;-79
2023/08/08 00:38:38;;;;;;;0.10;0.10;;;;;;;;;;5098152;28;20205;-79
2023/08/08 00:41:05;;;;;;;0.10;0.10;;;;;;;;;;5088924;28;20244;-79
2023/08/08 00:43:31;;;;;;;0.10;0.10;;;;;;;;;;5100525;28;20463;-78
2023/08/08 00:45:59;;;;;;;0.10;0.10;;;;;;;;;;5087093;28;20246;-78
2023/08/08 00:48:26;;;;;;;0.10;0.10;;;;;;;;;;5102138;28;20215;-79
2023/08/08 00:50:52;;;;;;;0.10;0.10;;;;;;;;;;5085511;28;20250;-77
2023/08/08 00:53:19;;;;;;;0.10;0.10;;;;;;;;;;5103544;28;20270;-79
2023/08/08 00:55:45;;;;;;;0.40;0.40;;;;;;;;;;5083285;28;20243;-79
2023/08/08 00:58:13;;;;;;;0.00;0.00;;;;;;;;;;5105452;28;20221;-79
2023/08/08 01:00:39;;;;;;;0.10;0.10;;;;;;;;;;5081797;28;20253;-78
2023/08/08 01:03:08;;;;;;;0.10;0.10;;;;;;;;;;5107259;28;20237;-79
2023/08/08 01:05:38;;;;;;;0.10;0.10;;;;;;;;;;5080616;28;20267;-79
2023/08/08 01:08:07;;;;;;;0.10;0.10;;;;;;;;;;5107222;28;20403;-78
2023/08/08 01:10:35;;;;;;;0.10;0.10;;;;;;;;;;5080075;28;20461;-79
2023/08/08 01:13:05;;;;;;;0.10;0.10;;;;;;;;;;5108357;28;20274;-80
2023/08/08 01:15:35;;;;;;;0.10;0.10;;;;;;;;;;5079385;28;20245;-78
2023/08/08 01:18:02;;;;;;;0.10;0.10;;;;;;;;;;5108345;28;20208;-78
2023/08/08 01:20:30;;;;;;;0.10;0.10;;;;;;;;;;5079899;28;20241;-78
2023/08/08 01:22:59;;;;;;;0.10;0.10;;;;;;;;;;5113583;28;20292;-79
2023/08/08 01:25:27;;;;;;;0.10;0.10;;;;;;;;;;5081421;28;20241;-79
2023/08/08 01:27:53;;;;;;;1.07;1.07;;;;;;;;;;5114377;28;20231;-79
2023/08/08 01:30:19;;;;;;;0.10;0.10;;;;;;;;;;5079664;28;20269;-79
2023/08/08 01:32:46;;;;;;;0.10;0.10;;;;;;;;;;5116418;28;20450;-79
2023/08/08 01:35:12;;;;;;;0.10;0.10;;;;;;;;;;5077927;28;20241;-78
2023/08/08 01:37:42;;;;;;;0.10;0.10;;;;;;;;;;5118265;28;20237;-78
2023/08/08 01:40:10;;;;;;;0.10;0.10;;;;;;;;;;5078351;28;20254;-79
2023/08/08 01:42:38;;;;;;;0.10;0.10;;;;;;;;;;5118247;28;20528;-79
2023/08/08 01:45:05;;;;;;;0.10;0.10;;;;;;;;;;5086611;28;20442;-77
2023/08/08 01:47:32;;;;;;;0.10;0.10;;;;;;;;;;5109274;28;20302;-78
2023/08/08 01:49:58;;;;;;;0.20;0.20;;;;;;;;;;5086653;28;20208;-78
2023/08/08 01:52:25;;;;;;;0.10;0.10;;;;;;;;;;5109116;28;20240;-79
2023/08/08 01:54:51;;;;;;;0.10;0.10;;;;;;;;;;5086191;28;20268;-78
2023/08/08 01:57:17;;;;;;;0.10;0.10;;;;;;;;;;5109095;28;20242;-78
2023/08/08 01:59:45;;;;;;;0.10;0.10;;;;;;;;;;5086092;28;20236;-78
2023/08/08 02:02:12;;;;;;;0.10;0.10;;;;;;;;;;5108919;28;20240;-79
2023/08/08 02:04:38;;;;;;;0.10;0.10;;;;;;;;;;5086480;28;20206;-79
2023/08/08 02:07:04;;;;;;;0.10;0.10;;;;;;;;;;5107945;28;20258;-78
2023/08/08 02:09:31;;;;;;;0.10;0.10;;;;;;;;;;5086501;28;20218;-79
2023/08/08 02:11:57;;;;;;;0.10;0.10;;;;;;;;;;5105982;28;20298;-76
2023/08/08 02:14:24;;;;;;;0.10;0.10;;;;;;;;;;5088780;28;20205;-79
2023/08/08 02:16:51;;;;;;;0.10;0.10;;;;;;;;;;5103944;28;20577;-78
2023/08/08 02:19:18;;;;;;;0.10;0.10;;;;;;;;;;5090416;28;20245;-79
2023/08/08 02:21:44;;;;;;;0.10;0.10;;;;;;;;;;5102070;28;20301;-79
2023/08/08 02:24:10;;;;;;;0.10;0.10;;;;;;;;;;5091847;28;20206;-78
2023/08/08 02:26:37;;;;;;;0.10;0.10;;;;;;;;;;5100197;28;20238;-78
2023/08/08 02:29:04;;;;;;;0.10;0.10;;;;;;;;;;5093860;28;20444;-77
2023/08/08 02:31:30;;;;;;;0.10;0.10;;;;;;;;;;5097415;28;20303;-77
2023/08/08 02:33:58;;;;;;;0.10;0.10;;;;;;;;;;5095314;28;20199;-78
2023/08/08 02:36:24;;;;;;;0.10;0.10;;;;;;;;;;5096493;28;20454;-79
2023/08/08 02:38:53;;;;;;;0.10;0.10;;;;;;;;;;5097016;28;20234;-78
2023/08/08 02:41:19;;;;;;;0.10;0.10;;;;;;;;;;5094962;28;20238;-78
2023/08/08 02:43:46;;;;;;;0.10;0.10;;;;;;;;;;5098319;28;20215;-79
2023/08/08 02:46:12;;;;;;;0.10;0.10;;;;;;;;;;5092737;28;20255;-80
2023/08/08 02:48:38;;;;;;;0.10;0.10;;;;;;;;;;5100118;28;20308;-80
2023/08/08 02:51:06;;;;;;;0.10;0.10;;;;;;;;;;5090924;28;20256;-79
2023/08/08 02:53:32;;;;;;;0.10;0.10;;;;;;;;;;5102112;28;20277;-78
2023/08/08 02:55:59;;;;;;;0.10;0.10;;;;;;;;;;5089059;28;20298;-79
2023/08/08 02:58:25;;;;;;;0.10;0.10;;;;;;;;;;5103710;28;20212;-79
2023/08/08 03:00:52;;;;;;;0.10;0.10;;;;;;;;;;5086913;28;20309;-79
2023/08/08 03:03:18;;;;;;;0.10;0.10;;;;;;;;;;5105685;28;20208;-79
2023/08/08 03:05:45;;;;;;;0.10;0.10;;;;;;;;;;5085217;28;20239;-79
2023/08/08 03:08:13;;;;;;;0.10;0.10;;;;;;;;;;5107069;28;20244;-78
2023/08/08 03:10:40;;;;;;;0.10;0.10;;;;;;;;;;5083723;28;20449;-79
2023/08/08 03:13:07;;;;;;;0.10;0.10;;;;;;;;;;5108539;28;20442;-78
2023/08/08 03:15:33;;;;;;;0.10;0.10;;;;;;;;;;5081655;28;20329;-79
2023/08/08 03:17:59;;;;;;;0.10;0.10;;;;;;;;;;5110376;28;20192;-79
2023/08/08 03:20:26;;;;;;;0.10;0.10;;;;;;;;;;5079630;28;20275;-79
2023/08/08 03:22:52;;;;;;;0.10;0.10;;;;;;;;;;5112200;28;20267;-78
2023/08/08 03:25:20;;;;;;;0.10;0.10;;;;;;;;;;5077454;28;20237;-78
2023/08/08 03:27:46;;;;;;;0.10;0.10;;;;;;;;;;5113572;28;20226;-79
2023/08/08 03:30:13;;;;;;;0.10;0.10;;;;;;;;;;5076049;28;20213;-79
2023/08/08 03:32:40;;;;;;;0.10;0.10;;;;;;;;;;5115074;28;20229;-79
2023/08/08 03:35:06;;;;;;;0.10;0.10;;;;;;;;;;5084557;28;20217;-78
2023/08/08 03:37:33;;;;;;;0.10;0.10;;;;;;;;;;5072817;28;20281;-78
2023/08/08 03:39:59;;;;;;;0.10;0.10;;;;;;;;;;5084457;28;20244;-79
2023/08/08 03:42:27;;;;;;;0.10;0.10;;;;;;;;;;5106808;28;20251;-79
2023/08/08 03:44:53;;;;;;;0.10;0.10;;;;;;;;;;5084603;28;20281;-77
2023/08/08 03:47:19;;;;;;;0.10;0.10;;;;;;;;;;5106895;28;20301;-79
2023/08/08 03:49:46;;;;;;;0.10;0.10;;;;;;;;;;5084536;28;20206;-79
2023/08/08 03:52:12;;;;;;;0.10;0.10;;;;;;;;;;5106717;28;20264;-79
2023/08/08 03:54:39;;;;;;;0.10;0.10;;;;;;;;;;5084502;28;20452;-79
2023/08/08 03:57:05;;;;;;;0.00;0.00;;;;;;;;;;5105090;28;20505;-79
2023/08/08 03:59:33;;;;;;;0.10;0.10;;;;;;;;;;5085592;28;20247;-79
2023/08/08 04:01:59;;;;;;;0.10;0.10;;;;;;;;;;5104069;28;20495;-79
2023/08/08 04:04:25;;;;;;;0.10;0.10;;;;;;;;;;5086184;28;20214;-79
2023/08/08 04:06:52;;;;;;;0.10;0.10;;;;;;;;;;5101141;28;20240;-79
2023/08/08 04:09:18;;;;;;;0.10;0.10;;;;;;;;;;5088659;28;20245;-79
2023/08/08 04:11:45;;;;;;;0.10;0.10;;;;;;;;;;5099824;28;20310;-78
2023/08/08 04:14:12;;;;;;;0.10;0.10;;;;;;;;;;5090131;28;20238;-78
2023/08/08 04:16:40;;;;;;;0.10;0.10;;;;;;;;;;5098445;28;20297;-80
2023/08/08 04:19:06;;;;;;;0.10;0.10;;;;;;;;;;5091494;28;20402;-79
2023/08/08 04:21:33;;;;;;;0.10;0.10;;;;;;;;;;5096796;28;20450;-78
2023/08/08 04:24:00;;;;;;;0.10;0.10;;;;;;;;;;5093196;28;20209;-79
2023/08/08 04:26:26;;;;;;;0.10;0.10;;;;;;;;;;5094804;28;20250;-80
2023/08/08 04:28:53;;;;;;;0.10;0.10;;;;;;;;;;5094910;28;20454;-79
2023/08/08 04:31:19;;;;;;;0.10;0.10;;;;;;;;;;5092865;28;20237;-79
2023/08/08 04:33:47;;;;;;;0.10;0.10;;;;;;;;;;5096675;28;20206;-78
2023/08/08 04:36:13;;;;;;;0.10;0.10;;;;;;;;;;5091449;28;20582;-79
2023/08/08 04:38:40;;;;;;;0.10;0.10;;;;;;;;;;5098215;28;20462;-79
2023/08/08 04:41:06;;;;;;;0.10;0.10;;;;;;;;;;5089206;28;20296;-79
2023/08/08 04:43:32;;;;;;;0.10;0.10;;;;;;;;;;5100121;28;20233;-79
2023/08/08 04:45:59;;;;;;;0.10;0.10;;;;;;;;;;5087362;28;20361;-79
2023/08/08 04:48:25;;;;;;;0.10;0.10;;;;;;;;;;5101890;28;20203;-79
2023/08/08 04:50:53;;;;;;;0.10;0.10;;;;;;;;;;5085210;28;20259;-80
2023/08/08 04:53:19;;;;;;;0.10;0.10;;;;;;;;;;5103963;28;20275;-79
2023/08/08 04:55:45;;;;;;;0.10;0.10;;;;;;;;;;5085531;28;20258;-79
2023/08/08 04:58:12;;;;;;;0.10;0.10;;;;;;;;;;5109567;28;20242;-79
2023/08/08 05:00:38;;;;;;;0.10;0.10;;;;;;;;;;5085811;28;20250;-80
2023/08/08 05:03:05;;;;;;;0.10;0.10;;;;;;;;;;5111842;28;20237;-79
2023/08/08 05:05:32;;;;;;;0.10;0.10;;;;;;;;;;5083966;28;20246;-79
2023/08/08 05:08:00;;;;;;;0.10;0.10;;;;;;;;;;5112762;28;20193;-79
2023/08/08 05:10:26;;;;;;;0.10;0.10;;;;;;;;;;5082169;28;20223;-79
2023/08/08 05:12:53;;;;;;;0.10;0.10;;;;;;;;;;5114732;28;20204;-76
2023/08/08 05:15:19;;;;;;;0.10;0.10;;;;;;;;;;5080304;28;20203;-77
2023/08/08 05:17:45;;;;;;;0.10;0.10;;;;;;;;;;5116330;28;20226;-77
2023/08/08 05:20:12;;;;;;;0.10;0.10;;;;;;;;;;5078217;28;20236;-77
2023/08/08 05:22:38;;;;;;;0.10;0.10;;;;;;;;;;5118345;28;20458;-79
2023/08/08 05:25:06;;;;;;;0.10;0.10;;;;;;;;;;5087314;28;20207;-76
2023/08/08 05:27:33;;;;;;;0.10;0.10;;;;;;;;;;5075679;28;20207;-77
2023/08/08 05:29:59;;;;;;;0.10;0.10;;;;;;;;;;5087207;28;20554;-76
2023/08/08 05:32:25;;;;;;;0.10;0.10;;;;;;;;;;5109449;28;20237;-78
2023/08/08 05:34:53;;;;;;;0.10;0.10;;;;;;;;;;5087171;28;20448;-78
2023/08/08 05:37:24;;;;;;;0.10;0.10;;;;;;;;;;5109406;28;20238;-78
2023/08/08 05:39:50;;;;;;;0.10;0.10;;;;;;;;;;5087118;28;20207;-78
2023/08/08 05:42:18;;;;;;;0.10;0.10;;;;;;;;;;5109122;28;20334;-79
2023/08/08 05:44:44;;;;;;;0.10;0.10;;;;;;;;;;5087000;28;20240;-79
2023/08/08 05:47:10;;;;;;;0.10;0.10;;;;;;;;;;5109106;28;20250;-78
2023/08/08 05:49:37;;;;;;;0.10;0.10;;;;;;;;;;5086973;28;20218;-78
2023/08/08 05:52:03;;;;;;;0.10;0.10;;;;;;;;;;5107809;28;20526;-78
2023/08/08 05:54:30;;;;;;;0.10;0.10;;;;;;;;;;5087795;28;20451;-78
2023/08/08 05:56:56;;;;;;;0.10;0.10;;;;;;;;;;5105755;28;20310;-78
2023/08/08 05:59:24;;;;;;;0.10;0.10;;;;;;;;;;5089465;28;20383;-78
2023/08/08 06:01:51;;;;;;;0.10;0.10;;;;;;;;;;5103368;28;20253;-78
2023/08/08 06:04:18;;;;;;;0.10;0.10;;;;;;;;;;5091800;28;20269;-78
2023/08/08 06:06:44;;;;;;;0.10;0.10;;;;;;;;;;5100901;28;20259;-78
2023/08/08 06:09:10;;;;;;;0.10;0.10;;;;;;;;;;5092457;28;20248;-78
2023/08/08 06:11:37;;;;;;;0.10;0.10;;;;;;;;;;5100156;28;20311;-78
2023/08/08 06:14:03;;;;;;;0.10;0.10;;;;;;;;;;5094542;28;20239;-78
2023/08/08 06:16:31;;;;;;;0.10;0.10;;;;;;;;;;5098131;28;20309;-77
2023/08/08 06:18:57;;;;;;;0.10;0.10;;;;;;;;;;5096225;28;20280;-78
2023/08/08 06:21:23;;;;;;;0.10;0.10;;;;;;;;;;5096607;28;20371;-79
2023/08/08 06:23:51;;;;;;;0.10;0.10;;;;;;;;;;5097728;28;20571;-76
2023/08/08 06:26:18;;;;;;;0.10;0.10;;;;;;;;;;5094983;28;20312;-75
2023/08/08 06:28:44;;;;;;;0.10;0.10;;;;;;;;;;5099037;28;20233;-75
2023/08/08 06:31:10;;;;;;;0.10;0.10;;;;;;;;;;5092881;28;20261;-74
2023/08/08 06:33:38;;;;;;;0.00;0.00;;;;;;;;;;5101252;28;20212;-74
2023/08/08 06:36:05;;;;;;;0.10;0.10;;;;;;;;;;5091081;28;20239;-75
2023/08/08 06:38:33;;;;;;;0.10;0.10;;;;;;;;;;5102504;28;20359;-75
2023/08/08 06:41:00;;;;;;;0.10;0.10;;;;;;;;;;5089777;28;20465;-75
2023/08/08 06:43:26;;;;;;;0.10;0.10;;;;;;;;;;5103815;28;20260;-74
2023/08/08 06:45:52;;;;;;;0.10;0.10;;;;;;;;;;5087713;28;20319;-73
2023/08/08 06:48:19;;;;;;;0.10;0.10;;;;;;;;;;5105758;28;20212;-75
2023/08/08 06:50:46;;;;;;;0.10;0.10;;;;;;;;;;5085636;28;20309;-74
2023/08/08 06:53:13;;;;;;;0.10;0.10;;;;;;;;;;5107346;28;20286;-75
2023/08/08 06:55:39;;;;;;;0.10;0.10;;;;;;;;;;5083972;28;20312;-75
2023/08/08 06:58:05;;;;;;;0.20;0.20;;;;;;;;;;5109116;28;20212;-74
2023/08/08 07:00:32;;;;;;;0.10;0.10;;;;;;;;;;5081599;28;20350;-75
2023/08/08 07:02:58;;;;;;;0.10;0.10;;;;;;;;;;5111039;28;20245;-75
2023/08/08 07:05:25;;;;;;;0.10;0.10;;;;;;;;;;5079637;28;20453;-75
2023/08/08 07:07:53;;;;;;;0.10;0.10;;;;;;;;;;5112597;28;20224;-75
2023/08/08 07:10:20;;;;;;;0.10;0.10;;;;;;;;;;5078271;28;20492;-75
2023/08/08 07:12:46;;;;;;;0.10;0.10;;;;;;;;;;5113987;28;20255;-75
2023/08/08 07:15:13;;;;;;;0.10;0.10;;;;;;;;;;5076180;28;20445;-75
2023/08/08 07:17:39;;;;;;;0.10;0.10;;;;;;;;;;5115845;28;20417;-75
2023/08/08 07:20:06;;;;;;;0.10;0.10;;;;;;;;;;5084747;28;20273;-74
2023/08/08 07:22:33;;;;;;;0.10;0.10;;;;;;;;;;5073080;28;20233;-75
2023/08/08 07:25:00;;;;;;;0.10;0.10;;;;;;;;;;5085036;28;20213;-75
2023/08/08 07:27:27;;;;;;;0.10;0.10;;;;;;;;;;5107217;28;20299;-75
2023/08/08 07:29:53;;;;;;;0.10;0.10;;;;;;;;;;5084909;28;20205;-74
2023/08/08 07:32:20;;;;;;;0.10;0.10;;;;;;;;;;5107134;28;20252;-75
2023/08/08 07:34:46;;;;;;;0.10;0.10;;;;;;;;;;5084331;28;20205;-75
2023/08/08 07:37:12;;;;;;;0.10;0.10;;;;;;;;;;5107050;28;20338;-75
2023/08/08 07:39:39;;;;;;;0.10;0.10;;;;;;;;;;5084773;28;20235;-74
2023/08/08 07:42:07;;;;;;;0.10;0.10;;;;;;;;;;5106110;28;20246;-75
2023/08/08 07:44:35;;;;;;;0.10;0.10;;;;;;;;;;5084700;28;20453;-75
2023/08/08 07:47:01;;;;;;;0.10;0.10;;;;;;;;;;5104917;28;20241;-74
2023/08/08 07:49:27;;;;;;;0.10;0.10;;;;;;;;;;5086025;28;20272;-76
2023/08/08 07:51:54;;;;;;;0.10;0.10;;;;;;;;;;5102761;28;20299;-75
2023/08/08 07:54:20;;;;;;;0.10;0.10;;;;;;;;;;5088009;28;20234;-76
2023/08/08 07:56:46;;;;;;;0.47;0.47;;;;;;;;;;5100742;28;20241;-75
2023/08/08 07:59:14;;;;;;;0.10;0.10;;;;;;;;;;5089872;28;20271;-75
2023/08/08 08:01:41;;;;;;;0.10;0.10;;;;;;;;;;5098866;28;20238;-75
2023/08/08 08:04:07;;;;;;;0.10;0.10;;;;;;;;;;5091531;28;20206;-75
2023/08/08 08:06:33;;;;;;;0.10;0.10;;;;;;;;;;5097179;28;20253;-75
2023/08/08 08:09:00;;;;;;;0.10;0.10;;;;;;;;;;5092792;28;20247;-76
2023/08/08 08:11:26;;;;;;;0.10;0.10;;;;;;;;;;5095080;28;20258;-76
2023/08/08 08:13:52;;;;;;;0.10;0.10;;;;;;;;;;5095144;28;20223;-74
2023/08/08 08:16:20;;;;;;;0.10;0.10;;;;;;;;;;5093142;28;20241;-75
2023/08/08 08:18:47;;;;;;;0.10;0.10;;;;;;;;;;5096863;28;20241;-76
2023/08/08 08:21:14;;;;;;;0.10;0.10;;;;;;;;;;5091719;28;20254;-75
2023/08/08 08:23:40;;;;;;;0.10;0.10;;;;;;;;;;5097809;28;20234;-76
2023/08/08 08:26:07;;;;;;;0.00;0.00;;;;;;;;;;5089664;28;20591;-75
2023/08/08 08:28:33;;;;;;;0.10;0.10;;;;;;;;;;5100147;28;20205;-75
2023/08/08 08:31:04;;;;;;;0.10;0.10;;;;;;;;;;5086559;28;20263;-75
2023/08/08 08:33:32;;;;;;;0.00;0.00;;;;;;;;;;5101015;28;20231;-75
2023/08/08 08:35:58;;;;;;;0.10;0.10;;;;;;;;;;5087196;28;20504;-75
2023/08/08 08:38:24;;;;;;;0.10;0.10;;;;;;;;;;5102516;28;20233;-75
2023/08/08 08:40:53;;;;;;;0.10;0.10;;;;;;;;;;5085179;28;20249;-75
2023/08/08 08:43:20;;;;;;;0.10;0.10;;;;;;;;;;5103613;28;20552;-76
2023/08/08 08:45:50;;;;;;;0.10;0.10;;;;;;;;;;5084014;28;20239;-76
2023/08/08 08:48:18;;;;;;;0.10;0.10;;;;;;;;;;5104335;28;20399;-75
2023/08/08 08:50:47;;;;;;;0.10;0.10;;;;;;;;;;5083461;28;20239;-75
2023/08/08 08:53:14;;;;;;;0.10;0.10;;;;;;;;;;5105198;28;20264;-75
2023/08/08 08:55:40;;;;;;;0.10;0.10;;;;;;;;;;5082313;28;20567;-75
2023/08/08 08:58:07;;;;;;;0.10;0.10;;;;;;;;;;5107135;28;20527;-74
2023/08/08 09:00:33;;;;;;;0.10;0.10;;;;;;;;;;5080225;28;20240;-75
2023/08/08 09:03:00;;;;;;;0.10;0.10;;;;;;;;;;5108678;28;20225;-75
2023/08/08 09:05:26;;;;;;;0.10;0.10;;;;;;;;;;5078309;28;20241;-75
2023/08/08 09:07:54;;;;;;;0.10;0.10;;;;;;;;;;5110676;28;20210;-74
2023/08/08 09:10:21;;;;;;;0.10;0.10;;;;;;;;;;5076812;28;20216;-75
2023/08/08 09:12:48;;;;;;;0.10;0.10;;;;;;;;;;5112262;28;20500;-75
2023/08/08 09:15:15;;;;;;;0.50;0.50;;;;;;;;;;5075122;28;20205;-75
2023/08/08 09:17:41;;;;;;;0.10;0.10;;;;;;;;;;5113836;28;20418;-75
2023/08/08 09:20:10;;;;;;;0.10;0.10;;;;;;;;;;5079106;28;20241;-75
2023/08/08 09:22:37;;;;;;;0.10;0.10;;;;;;;;;;5114777;28;20268;-75
2023/08/08 09:25:05;;;;;;;0.00;0.00;;;;;;;;;;5083483;28;20215;-76
2023/08/08 09:27:31;;;;;;;0.10;0.10;;;;;;;;;;5105615;28;20424;-75
2023/08/08 09:29:58;;;;;;;0.10;0.10;;;;;;;;;;5083552;28;20198;-75
2023/08/08 09:32:29;;;;;;;0.10;0.10;;;;;;;;;;5105536;28;20247;-75
2023/08/08 09:34:56;;;;;;;0.10;0.10;;;;;;;;;;5083436;28;20267;-75
2023/08/08 09:37:23;;;;;;;0.10;0.10;;;;;;;;;;5105601;28;20254;-75
2023/08/08 09:39:56;;;;;;;0.10;0.10;;;;;;;;;;5083257;28;20238;-75
2023/08/08 09:42:24;;;;;;;0.10;0.10;;;;;;;;;;5108053;28;20484;-75
2023/08/08 09:44:51;;;;;;;0.10;0.10;;;;;;;;;;5086957;28;20214;-75
2023/08/08 09:47:17;;;;;;;0.10;0.10;;;;;;;;;;5109241;28;20455;-75
2023/08/08 09:49:44;;;;;;;0.10;0.10;;;;;;;;;;5086890;28;20469;-74
2023/08/08 09:52:11;;;;;;;0.10;0.10;;;;;;;;;;5109096;28;20308;-75
2023/08/08 09:54:39;;;;;;;0.10;0.10;;;;;;;;;;5086737;28;20241;-76
2023/08/08 09:57:06;;;;;;;0.10;0.10;;;;;;;;;;5108108;28;20622;-75
2023/08/08 09:59:34;;;;;;;0.10;0.10;;;;;;;;;;5087234;28;20206;-74
2023/08/08 10:02:01;;;;;;;0.10;0.10;;;;;;;;;;5106424;28;20305;-74
2023/08/08 10:04:28;;;;;;;0.10;0.10;;;;;;;;;;5088260;28;20257;-75
2023/08/08 10:06:54;;;;;;;0.10;0.10;;;;;;;;;;5104780;28;20250;-74
2023/08/08 10:09:21;;;;;;;0.05;0.05;;;;;;;;;;5089567;28;20218;-75
2023/08/08 10:11:48;;;;;;;0.10;0.10;;;;;;;;;;5102916;28;20251;-74
2023/08/08 10:14:15;;;;;;;0.03;0.03;;;;;;;;;;5091611;28;20499;-74
2023/08/08 10:16:44;;;;;;;0.00;0.00;;;;;;;;;;5101313;28;20484;-75
2023/08/08 10:19:11;;;;;;;0.03;0.03;;;;;;;;;;5092123;28;20196;-74
2023/08/08 10:21:41;;;;;;;0.45;0.45;;;;;;;;;;5100026;28;20261;-76
2023/08/08 10:24:09;;;;;;;0.10;0.10;;;;;;;;;;5093326;28;20547;-74
2023/08/08 10:26:52;;;;;;;0.10;0.10;;;;;;;;;;5099450;28;20238;-73
2023/08/08 10:29:18;;;;;;;0.10;0.10;;;;;;;;;;5089945;28;20242;-74
2023/08/08 10:31:51;;;;;;;0.25;0.25;;;;;;;;;;5101945;28;20241;-76
2023/08/08 10:34:20;;;;;;;0.10;0.10;;;;;;;;;;5090539;28;20275;-74
2023/08/08 10:36:50;;;;;;;0.10;0.10;;;;;;;;;;5102583;28;20528;-75
2023/08/08 10:39:17;;;;;;;0.10;0.10;;;;;;;;;;5090395;28;20384;-75
2023/08/08 10:41:47;;;;;;;0.10;0.10;;;;;;;;;;5101792;28;20238;-75
2023/08/08 10:44:14;;;;;;;0.10;0.10;;;;;;;;;;5090560;28;20562;-74
2023/08/08 10:46:41;;;;;;;0.00;0.00;;;;;;;;;;5100675;28;20237;-74
2023/08/08 10:49:09;;;;;;;0.00;0.00;;;;;;;;;;5092441;28;20231;-74
2023/08/08 10:51:39;;;;;;;0.10;0.10;;;;;;;;;;5099076;28;20503;-75
2023/08/08 10:54:06;;;;;;;0.00;0.00;;;;;;;;;;5092659;28;20439;-74
2023/08/08 10:56:32;;;;;;;0.10;0.10;;;;;;;;;;5098203;28;20238;-75
2023/08/08 10:58:58;;;;;;;0.10;0.10;;;;;;;;;;5094806;28;20211;-74
2023/08/08 11:01:25;;;;;;;0.10;0.10;;;;;;;;;;5096039;28;20308;-75
2023/08/08 11:03:52;;;;;;;0.00;0.00;;;;;;;;;;5096692;28;20546;-75
2023/08/08 11:06:20;;;;;;;0.10;0.10;;;;;;;;;;5094514;28;20245;-77
2023/08/08 11:08:47;;;;;;;0.10;0.10;;;;;;;;;;5097668;28;20453;-75
2023/08/08 11:11:13;;;;;;;0.75;0.75;;;;;;;;;;5092728;28;20523;-75
2023/08/08 11:13:39;;;;;;;0.10;0.10;;;;;;;;;;5099903;28;20206;-75
2023/08/08 11:16:06;;;;;;;0.10;0.10;;;;;;;;;;5090453;28;20257;-75
2023/08/08 11:18:32;;;;;;;0.10;0.10;;;;;;;;;;5101743;28;20226;-74
2023/08/08 11:20:58;;;;;;;0.10;0.10;;;;;;;;;;5088526;28;20488;-74
2023/08/08 11:23:26;;;;;;;0.00;0.00;;;;;;;;;;5103316;28;20255;-75
2023/08/08 11:25:52;;;;;;;0.10;0.10;;;;;;;;;;5087014;28;20385;-73
2023/08/08 11:28:19;;;;;;;0.10;0.10;;;;;;;;;;5105152;28;20231;-75
2023/08/08 11:30:46;;;;;;;0.00;0.00;;;;;;;;;;5084615;28;20245;-76
2023/08/08 11:33:14;;;;;;;0.10;0.10;;;;;;;;;;5106646;28;20208;-75
2023/08/08 11:35:45;;;;;;;0.10;0.10;;;;;;;;;;5083273;28;20577;-75
2023/08/08 11:38:12;;;;;;;0.00;0.00;;;;;;;;;;5106881;28;20252;-77
2023/08/08 11:40:40;;;;;;;0.00;0.00;;;;;;;;;;5082813;28;20501;-76
2023/08/08 11:43:07;;;;;;;0.10;0.10;;;;;;;;;;5108367;28;20247;-76
2023/08/08 11:45:33;;;;;;;0.10;0.10;;;;;;;;;;5081526;28;20236;-74
2023/08/08 11:48:00;;;;;;;0.10;0.10;;;;;;;;;;5109572;28;20204;-74
2023/08/08 11:50:28;;;;;;;0.10;0.10;;;;;;;;;;5079462;28;20241;-77
2023/08/08 11:52:54;;;;;;;0.05;0.05;;;;;;;;;;5111336;28;20234;-76
2023/08/08 11:55:23;;;;;;;0.10;0.10;;;;;;;;;;5077868;28;20376;-75
2023/08/08 11:57:53;;;;;;;0.10;0.10;;;;;;;;;;5112378;28;20191;-75
2023/08/08 12:00:19;;;;;;;0.10;0.10;;;;;;;;;;5076115;28;20212;-76
2023/08/08 12:02:46;;;;;;;0.10;0.10;;;;;;;;;;5114434;28;20208;-77
2023/08/08 12:05:16;;;;;;;0.08;0.08;;;;;;;;;;5074599;28;20557;-80
2023/08/08 12:07:44;;;;;;;0.05;0.05;;;;;;;;;;5113944;28;20252;-79
2023/08/08 12:10:15;;;;;;;0.10;0.10;;;;;;;;;;5074634;28;20257;-79
2023/08/08 12:12:41;;;;;;;0.10;0.10;;;;;;;;;;5114173;28;20215;-79
2023/08/08 12:15:10;;;;;;;0.00;0.00;;;;;;;;;;5078694;28;20239;-78
2023/08/08 12:17:37;;;;;;;0.00;0.00;;;;;;;;;;5115824;28;20217;-78
2023/08/08 12:20:05;;;;;;;0.10;0.10;;;;;;;;;;5084200;28;20208;-78
2023/08/08 12:22:31;;;;;;;0.10;0.10;;;;;;;;;;5106370;28;20467;-78
2023/08/08 12:24:58;;;;;;;0.10;0.10;;;;;;;;;;5084045;28;20227;-78
2023/08/08 12:27:24;;;;;;;0.08;0.08;;;;;;;;;;5106252;28;20265;-78
2023/08/08 12:29:51;;;;;;;0.10;0.10;;;;;;;;;;5084121;28;20273;-78
2023/08/08 12:32:20;;;;;;;0.10;0.10;;;;;;;;;;5106128;28;20585;-78
2023/08/08 12:34:46;;;;;;;0.10;0.10;;;;;;;;;;5084032;28;20427;-78
2023/08/08 12:37:12;;;;;;;0.50;0.50;;;;;;;;;;5106244;28;20493;-79
2023/08/08 12:39:39;;;;;;;0.05;0.05;;;;;;;;;;5083990;28;20535;-78
2023/08/08 12:42:06;;;;;;;0.10;0.10;;;;;;;;;;5105518;28;20275;-79
2023/08/08 12:44:32;;;;;;;0.00;0.00;;;;;;;;;;5084206;28;20536;-75
2023/08/08 12:46:58;;;;;;;0.00;0.00;;;;;;;;;;5103418;28;20248;-78
2023/08/08 12:49:26;;;;;;;0.08;0.08;;;;;;;;;;5086118;28;20201;-76
2023/08/08 12:51:53;;;;;;;0.00;0.00;;;;;;;;;;5101847;28;20238;-80
2023/08/08 12:54:19;;;;;;;0.10;0.10;;;;;;;;;;5087647;28;20429;-81
2023/08/08 12:56:46;;;;;;;0.00;0.00;;;;;;;;;;5099890;28;20275;-76
2023/08/08 12:59:12;;;;;;;0.05;0.05;;;;;;;;;;5089494;28;20261;-76
2023/08/08 13:01:38;;;;;;;0.10;0.10;;;;;;;;;;5097847;28;20306;-75
2023/08/08 13:04:05;;;;;;;0.10;0.10;;;;;;;;;;5091288;28;20258;-76
2023/08/08 13:06:33;;;;;;;0.10;0.10;;;;;;;;;;5096071;28;20258;-76
2023/08/08 13:09:00;;;;;;;0.00;0.00;;;;;;;;;;5092204;28;20241;-75
2023/08/08 13:11:26;;;;;;;0.00;0.00;;;;;;;;;;5094458;28;20250;-76
2023/08/08 13:13:53;;;;;;;0.10;0.10;;;;;;;;;;5094282;28;20385;-75
2023/08/08 13:16:19;;;;;;;0.00;0.00;;;;;;;;;;5093724;28;20243;-76
2023/08/08 13:18:45;;;;;;;0.10;0.10;;;;;;;;;;5100631;28;20239;-76
2023/08/08 13:21:12;;;;;;;0.10;0.10;;;;;;;;;;5094311;28;20239;-76
2023/08/08 13:23:41;;;;;;;0.10;0.10;;;;;;;;;;5101947;28;20230;-75
2023/08/08 13:26:08;;;;;;;0.10;0.10;;;;;;;;;;5093152;28;20270;-76
2023/08/08 13:28:34;;;;;;;0.10;0.10;;;;;;;;;;5103062;28;20306;-76
2023/08/08 13:31:01;;;;;;;0.10;0.10;;;;;;;;;;5090819;28;20253;-76
2023/08/08 13:33:27;;;;;;;0.05;0.05;;;;;;;;;;5105596;28;20210;-76
2023/08/08 13:35:54;;;;;;;0.00;0.00;;;;;;;;;;5089300;28;20265;-76
2023/08/08 13:38:20;;;;;;;0.00;0.00;;;;;;;;;;5106797;28;20498;-75
2023/08/08 13:40:48;;;;;;;0.00;0.00;;;;;;;;;;5087497;28;20475;-76
2023/08/08 13:43:14;;;;;;;0.10;0.10;;;;;;;;;;5108497;28;20236;-75
2023/08/08 13:45:41;;;;;;;0.10;0.10;;;;;;;;;;5085857;28;20418;-76
2023/08/08 13:48:07;;;;;;;0.10;0.10;;;;;;;;;;5110183;28;20445;-76
2023/08/08 13:50:33;;;;;;;0.10;0.10;;;;;;;;;;5083391;28;20282;-76
2023/08/08 13:53:00;;;;;;;0.10;0.10;;;;;;;;;;5111755;28;20276;-76
2023/08/08 13:55:26;;;;;;;0.10;0.10;;;;;;;;;;5081319;28;20279;-76
2023/08/08 13:57:55;;;;;;;0.10;0.10;;;;;;;;;;5113785;28;20192;-78
2023/08/08 14:00:21;;;;;;;0.03;0.03;;;;;;;;;;5080197;28;20227;-79
2023/08/08 14:02:48;;;;;;;0.00;0.00;;;;;;;;;;5115304;28;20195;-78
2023/08/08 14:05:15;;;;;;;0.00;0.00;;;;;;;;;;5077756;28;20293;-79
2023/08/08 14:07:41;;;;;;;0.10;0.10;;;;;;;;;;5116747;28;20220;-76
2023/08/08 14:10:09;;;;;;;0.10;0.10;;;;;;;;;;5084373;28;20284;-76
2023/08/08 14:12:36;;;;;;;0.00;0.00;;;;;;;;;;5118468;28;20225;-77
2023/08/08 14:15:04;;;;;;;0.00;0.00;;;;;;;;;;5086582;28;20249;-78
2023/08/08 14:17:30;;;;;;;0.00;0.00;;;;;;;;;;5108712;28;20237;-77
2023/08/08 14:19:57;;;;;;;0.00;0.00;;;;;;;;;;5086499;28;20254;-77
2023/08/08 14:22:23;;;;;;;0.10;0.10;;;;;;;;;;5108612;28;20317;-77
2023/08/08 14:24:49;;;;;;;0.10;0.10;;;;;;;;;;5086281;28;20264;-78
2023/08/08 14:27:16;;;;;;;0.05;0.05;;;;;;;;;;5108277;28;20343;-77
2023/08/08 14:29:42;;;;;;;0.10;0.10;;;;;;;;;;5085710;28;20238;-78
2023/08/08 14:32:10;;;;;;;0.08;0.08;;;;;;;;;;5108335;28;20308;-78
2023/08/08 14:34:37;;;;;;;0.10;0.10;;;;;;;;;;5086159;28;20207;-79
2023/08/08 14:37:04;;;;;;;0.03;0.03;;;;;;;;;;5107270;28;20242;-79
2023/08/08 14:39:30;;;;;;;0.10;0.10;;;;;;;;;;5086737;28;20246;-78
2023/08/08 14:41:57;;;;;;;0.03;0.03;;;;;;;;;;5105119;28;20486;-78